Time;durP1;ratioP1;P1;durP2;ratioP2;P2;SDS_P1;SDS_P2;PMS_P1;PMS_P2;Temp;Humidity;BMP_temperature;BMP_pressure;BME280_temperature;BME280_humidity;BME280_pressure;Samples;Min_cycle;Max_cycle;Signal;HPM_P1;HPM_P2
2021/06/11 00:02:23;;;;;;;6.25;5.22;;;;;;;;;;5028873;28;20025;-63
2021/06/11 00:04:48;;;;;;;6.82;5.53;;;;;;;;;;5029360;28;20119;-63
2021/06/11 00:07:13;;;;;;;5.90;5.28;;;;;;;;;;5028494;28;20461;-63
2021/06/11 00:09:39;;;;;;;6.18;5.63;;;;;;;;;;5028019;28;20032;-63
2021/06/11 00:12:04;;;;;;;6.38;5.72;;;;;;;;;;5028995;28;20017;-63
2021/06/11 00:14:30;;;;;;;6.00;5.40;;;;;;;;;;5027912;28;20037;-63
2021/06/11 00:16:55;;;;;;;6.20;5.60;;;;;;;;;;5025201;28;20057;-64
2021/06/11 00:19:20;;;;;;;6.22;5.03;;;;;;;;;;5029139;28;20104;-63
2021/06/11 00:21:46;;;;;;;6.78;4.95;;;;;;;;;;5027701;28;20044;-63
2021/06/11 00:24:11;;;;;;;7.68;5.55;;;;;;;;;;5028973;28;20169;-63
2021/06/11 00:26:36;;;;;;;5.65;5.15;;;;;;;;;;5028188;28;20049;-63
2021/06/11 00:29:02;;;;;;;6.15;5.55;;;;;;;;;;5029151;28;20049;-63
2021/06/11 00:31:27;;;;;;;6.65;5.95;;;;;;;;;;5019059;28;20029;-63
2021/06/11 00:33:53;;;;;;;5.47;4.97;;;;;;;;;;5028721;28;20034;-63
2021/06/11 00:36:18;;;;;;;5.78;5.20;;;;;;;;;;5028858;28;20079;-63
2021/06/11 00:38:43;;;;;;;6.18;5.57;;;;;;;;;;5028109;28;20025;-63
2021/06/11 00:41:09;;;;;;;5.95;5.35;;;;;;;;;;5028592;28;20029;-62
2021/06/11 00:43:34;;;;;;;5.78;5.25;;;;;;;;;;5027488;28;20116;-63
2021/06/11 00:45:59;;;;;;;5.93;5.32;;;;;;;;;;5045128;23;20720;-60
2021/06/11 00:48:25;;;;;;;5.55;4.82;;;;;;;;;;5007627;28;20033;-58
2021/06/11 00:50:50;;;;;;;5.82;5.22;;;;;;;;;;5008234;28;20108;-58
2021/06/11 00:53:16;;;;;;;5.97;5.35;;;;;;;;;;5007208;28;20026;-59
2021/06/11 00:55:45;;;;;;;6.28;5.57;;;;;;;;;;5008190;28;20029;-60
2021/06/11 00:58:11;;;;;;;5.95;5.05;;;;;;;;;;4990805;28;20386;-58
2021/06/11 01:00:37;;;;;;;5.32;4.82;;;;;;;;;;4976049;28;20022;-59
2021/06/11 01:03:02;;;;;;;7.13;5.50;;;;;;;;;;5008386;28;20026;-57
2021/06/11 01:05:28;;;;;;;5.97;5.38;;;;;;;;;;5008239;28;20381;-59
2021/06/11 01:07:53;;;;;;;5.47;4.93;;;;;;;;;;5006966;28;20026;-57
2021/06/11 01:10:19;;;;;;;5.97;5.38;;;;;;;;;;4974792;28;20058;-60
2021/06/11 01:12:44;;;;;;;6.72;5.25;;;;;;;;;;4990517;28;20032;-59
2021/06/11 01:15:11;;;;;;;5.90;5.40;;;;;;;;;;4973987;28;20536;-60
2021/06/11 01:17:36;;;;;;;5.47;4.97;;;;;;;;;;5006855;28;20029;-59
2021/06/11 01:20:13;;;;;;;5.80;5.30;;;;;;;;;;4990515;28;20121;-59
2021/06/11 01:23:00;;;;;;;5.72;5.22;;;;;;;;;;5006925;28;20026;-59
2021/06/11 01:25:37;;;;;;;5.90;5.38;;;;;;;;;;5008196;28;20033;-58
2021/06/11 01:28:03;;;;;;;6.10;5.50;;;;;;;;;;5004596;28;20057;-59
2021/06/11 01:30:28;;;;;;;5.95;5.35;;;;;;;;;;4974296;28;20427;-57
2021/06/11 01:32:55;;;;;;;5.82;5.28;;;;;;;;;;4973899;28;20026;-58
2021/06/11 01:35:26;;;;;;;5.53;4.82;;;;;;;;;;4990704;28;20160;-58
2021/06/11 01:38:00;;;;;;;6.10;5.50;;;;;;;;;;4988251;28;20037;-57
2021/06/11 01:40:25;;;;;;;6.07;5.47;;;;;;;;;;4973914;28;20408;-58
2021/06/11 01:42:50;;;;;;;5.55;5.00;;;;;;;;;;4990221;28;20032;-60
2021/06/11 01:45:16;;;;;;;6.15;5.57;;;;;;;;;;4974426;28;20478;-60
2021/06/11 01:47:42;;;;;;;5.43;4.93;;;;;;;;;;4972680;28;20034;-58
2021/06/11 01:50:08;;;;;;;5.80;5.20;;;;;;;;;;4989186;28;20014;-58
2021/06/11 01:52:34;;;;;;;5.75;5.25;;;;;;;;;;4989455;28;20509;-60
2021/06/11 01:54:59;;;;;;;6.22;5.63;;;;;;;;;;4990485;28;20096;-60
2021/06/11 01:57:25;;;;;;;5.30;4.80;;;;;;;;;;4986164;28;20050;-58
2021/06/11 01:59:51;;;;;;;5.63;4.97;;;;;;;;;;4989138;28;20034;-56
2021/06/11 02:02:17;;;;;;;5.53;5.00;;;;;;;;;;4974172;28;20105;-57
2021/06/11 02:04:42;;;;;;;5.72;4.85;;;;;;;;;;5008023;28;20062;-59
2021/06/11 02:07:09;;;;;;;5.55;5.05;;;;;;;;;;4971059;28;20466;-59
2021/06/11 02:09:35;;;;;;;5.45;4.95;;;;;;;;;;4973873;28;20025;-59
2021/06/11 02:12:01;;;;;;;5.50;5.00;;;;;;;;;;5002542;28;20038;-60
2021/06/11 02:14:26;;;;;;;5.70;4.93;;;;;;;;;;4990198;28;20033;-60
2021/06/11 02:16:51;;;;;;;5.82;5.22;;;;;;;;;;4964286;28;20036;-60
2021/06/11 02:19:18;;;;;;;5.72;5.13;;;;;;;;;;4968425;28;20050;-59
2021/06/11 02:21:43;;;;;;;5.93;5.32;;;;;;;;;;4990631;28;20116;-59
2021/06/11 02:24:09;;;;;;;5.32;4.82;;;;;;;;;;5007886;28;20813;-58
2021/06/11 02:26:34;;;;;;;5.38;4.45;;;;;;;;;;5004983;28;20083;-59
2021/06/11 02:29:00;;;;;;;5.50;5.00;;;;;;;;;;5006168;28;20022;-60
2021/06/11 02:31:25;;;;;;;5.90;5.38;;;;;;;;;;5007390;28;20025;-60
2021/06/11 02:33:50;;;;;;;5.53;5.03;;;;;;;;;;5009451;28;20075;-59
2021/06/11 02:36:16;;;;;;;5.70;5.20;;;;;;;;;;5010367;28;20109;-59
2021/06/11 02:38:41;;;;;;;5.72;5.20;;;;;;;;;;5010031;28;20056;-59
2021/06/11 02:41:07;;;;;;;5.30;4.80;;;;;;;;;;5011506;28;20065;-59
2021/06/11 02:43:33;;;;;;;5.55;5.05;;;;;;;;;;4976563;28;20022;-58
2021/06/11 02:46:10;;;;;;;5.40;4.90;;;;;;;;;;4993436;28;20105;-59
2021/06/11 02:48:40;;;;;;;5.80;5.20;;;;;;;;;;5009606;28;20719;-57
2021/06/11 02:51:11;;;;;;;6.13;5.40;;;;;;;;;;4977809;28;20038;-60
2021/06/11 02:53:37;;;;;;;;;;;;;;;;;;5010938;28;20259;-57
2021/06/11 02:56:11;;;;;;;5.43;4.93;;;;;;;;;;4991675;28;20389;-59
2021/06/11 02:59:04;;;;;;;5.82;5.25;;;;;;;;;;4990611;28;20029;-60
2021/06/11 03:01:29;;;;;;;5.18;4.68;;;;;;;;;;4992853;28;20111;-59
2021/06/11 03:03:55;;;;;;;5.50;5.00;;;;;;;;;;4973086;28;20061;-59
2021/06/11 03:06:22;;;;;;;5.38;4.88;;;;;;;;;;4976492;28;20023;-60
2021/06/11 03:08:48;;;;;;;5.50;5.00;;;;;;;;;;4975825;28;20377;-58
2021/06/11 03:11:15;;;;;;;5.20;4.70;;;;;;;;;;4993207;28;20030;-59
2021/06/11 03:13:44;;;;;;;4.70;4.30;;;;;;;;;;5010250;28;20496;-56
2021/06/11 03:16:10;;;;;;;5.40;4.85;;;;;;;;;;4972887;28;20057;-58
2021/06/11 03:18:43;;;;;;;5.32;4.78;;;;;;;;;;4989315;28;20479;-60
2021/06/11 03:21:17;;;;;;;5.88;4.70;;;;;;;;;;4990951;28;20026;-59
2021/06/11 03:24:07;;;;;;;5.10;4.60;;;;;;;;;;5002345;28;20022;-60
2021/06/11 03:26:43;;;;;;;5.32;4.82;;;;;;;;;;4991333;28;20396;-59
2021/06/11 03:29:09;;;;;;;6.00;4.97;;;;;;;;;;5007826;28;20100;-59
2021/06/11 03:31:36;;;;;;;5.43;4.93;;;;;;;;;;4972984;28;20074;-59
2021/06/11 03:34:04;;;;;;;5.50;4.97;;;;;;;;;;4973412;28;20050;-60
2021/06/11 03:36:38;;;;;;;5.68;4.72;;;;;;;;;;4974776;28;20025;-58
2021/06/11 03:39:06;;;;;;;4.97;4.47;;;;;;;;;;4991769;28;20044;-58
2021/06/11 03:41:32;;;;;;;5.13;4.50;;;;;;;;;;5009911;28;20036;-59
2021/06/11 03:43:58;;;;;;;5.05;4.55;;;;;;;;;;4956338;28;20391;-60
2021/06/11 03:46:23;;;;;;;5.10;4.45;;;;;;;;;;4982526;28;20117;-59
2021/06/11 03:48:51;;;;;;;5.00;4.50;;;;;;;;;;4975329;28;20050;-60
2021/06/11 03:51:16;;;;;;;4.63;4.22;;;;;;;;;;4991760;28;20032;-60
2021/06/11 03:53:42;;;;;;;5.10;4.70;;;;;;;;;;4991557;28;20397;-59
2021/06/11 03:56:08;;;;;;;4.97;4.57;;;;;;;;;;5008072;28;20025;-59
2021/06/11 03:58:39;;;;;;;5.00;4.47;;;;;;;;;;5006897;28;20433;-60
2021/06/11 04:01:05;;;;;;;4.88;4.43;;;;;;;;;;4991587;28;20033;-57
2021/06/11 04:03:30;;;;;;;4.80;4.30;;;;;;;;;;4988728;28;20022;-57
2021/06/11 04:06:01;;;;;;;4.75;4.22;;;;;;;;;;4977437;28;20030;-59
2021/06/11 04:08:28;;;;;;;4.53;4.13;;;;;;;;;;5008187;28;20038;-59
2021/06/11 04:10:54;;;;;;;4.80;4.38;;;;;;;;;;5009562;28;20029;-59
2021/06/11 04:13:52;;;;;;;5.30;4.80;;;;;;;;;;5008501;28;20067;-59
2021/06/11 04:16:19;;;;;;;4.85;4.35;;;;;;;;;;5009008;28;20105;-60
2021/06/11 04:18:45;;;;;;;5.18;4.68;;;;;;;;;;4990746;28;20080;-59
2021/06/11 04:21:12;;;;;;;4.45;4.05;;;;;;;;;;4991937;28;20359;-59
2021/06/11 04:23:38;;;;;;;4.75;4.35;;;;;;;;;;5007855;28;20030;-58
2021/06/11 04:26:03;;;;;;;5.10;4.60;;;;;;;;;;5008888;28;20048;-59
2021/06/11 04:28:33;;;;;;;5.03;4.50;;;;;;;;;;5006658;28;20032;-59
2021/06/11 04:30:58;;;;;;;4.60;4.07;;;;;;;;;;5007598;28;20099;-59
2021/06/11 04:33:25;;;;;;;5.05;4.47;;;;;;;;;;4990466;28;20025;-59
2021/06/11 04:35:51;;;;;;;5.05;4.57;;;;;;;;;;5008856;28;20034;-59
2021/06/11 04:38:16;;;;;;;4.45;4.05;;;;;;;;;;5006833;28;20034;-58
2021/06/11 04:40:42;;;;;;;8.13;4.80;;;;;;;;;;4990836;28;20028;-58
2021/06/11 04:43:07;;;;;;;4.40;4.00;;;;;;;;;;5008115;28;20618;-58
2021/06/11 04:45:34;;;;;;;4.47;3.97;;;;;;;;;;4989909;28;20705;-59
2021/06/11 04:47:59;;;;;;;4.60;4.20;;;;;;;;;;4969736;28;20105;-59
2021/06/11 04:50:25;;;;;;;5.25;4.60;;;;;;;;;;5007763;28;20716;-59
2021/06/11 04:52:51;;;;;;;4.45;4.05;;;;;;;;;;4990242;28;20386;-58
2021/06/11 04:55:16;;;;;;;4.82;4.40;;;;;;;;;;5007558;28;20026;-59
2021/06/11 04:57:42;;;;;;;5.07;4.18;;;;;;;;;;5004889;28;20029;-59
2021/06/11 05:00:09;;;;;;;6.65;4.50;;;;;;;;;;5001202;28;20027;-60
2021/06/11 05:02:34;;;;;;;5.30;4.80;;;;;;;;;;5007225;28;20022;-60
2021/06/11 05:05:00;;;;;;;4.88;4.47;;;;;;;;;;5008308;28;20529;-59
2021/06/11 05:07:25;;;;;;;5.03;4.28;;;;;;;;;;4988339;28;20406;-55
2021/06/11 05:09:50;;;;;;;4.53;4.00;;;;;;;;;;5008271;28;20096;-61
2021/06/11 05:12:16;;;;;;;6.07;4.75;;;;;;;;;;5007837;28;20394;-56
2021/06/11 05:14:41;;;;;;;4.88;4.10;;;;;;;;;;5008454;28;20163;-58
2021/06/11 05:17:07;;;;;;;5.45;4.28;;;;;;;;;;5006123;28;20056;-60
2021/06/11 05:19:32;;;;;;;5.22;4.40;;;;;;;;;;5007527;28;20022;-57
2021/06/11 05:21:57;;;;;;;5.18;4.40;;;;;;;;;;5007729;28;20160;-57
2021/06/11 05:24:23;;;;;;;4.65;4.25;;;;;;;;;;5008404;28;20101;-56
2021/06/11 05:26:48;;;;;;;5.57;3.85;;;;;;;;;;5006617;28;20033;-58
2021/06/11 05:29:14;;;;;;;4.60;4.20;;;;;;;;;;5007213;28;20378;-57
2021/06/11 05:31:39;;;;;;;4.93;3.90;;;;;;;;;;5007800;28;20084;-60
2021/06/11 05:34:04;;;;;;;5.05;3.97;;;;;;;;;;5007833;28;20112;-55
2021/06/11 05:36:30;;;;;;;4.93;4.53;;;;;;;;;;5006824;28;20038;-59
2021/06/11 05:38:55;;;;;;;4.43;4.03;;;;;;;;;;4997430;28;20387;-59
2021/06/11 05:41:20;;;;;;;5.45;3.88;;;;;;;;;;5005892;28;20030;-59
2021/06/11 05:43:46;;;;;;;4.80;3.60;;;;;;;;;;5008064;28;20041;-59
2021/06/11 05:46:13;;;;;;;5.38;3.60;;;;;;;;;;5007861;28;20641;-58
2021/06/11 05:48:40;;;;;;;5.22;3.75;;;;;;;;;;5007065;28;20030;-58
2021/06/11 05:51:05;;;;;;;6.47;4.78;;;;;;;;;;5007441;28;20390;-57
2021/06/11 05:53:31;;;;;;;6.72;4.57;;;;;;;;;;5007291;28;20022;-56
2021/06/11 05:55:56;;;;;;;7.32;4.53;;;;;;;;;;5007511;28;20592;-59
2021/06/11 05:58:22;;;;;;;10.77;5.65;;;;;;;;;;4997550;28;20057;-59
2021/06/11 06:00:47;;;;;;;4.85;4.35;;;;;;;;;;4993979;28;20100;-58
2021/06/11 06:03:13;;;;;;;5.47;4.47;;;;;;;;;;4989126;28;20049;-59
2021/06/11 06:05:38;;;;;;;11.43;4.20;;;;;;;;;;5007829;28;20500;-60
2021/06/11 06:08:04;;;;;;;6.50;4.72;;;;;;;;;;5007833;28;20033;-59
2021/06/11 06:10:30;;;;;;;7.15;4.45;;;;;;;;;;5011615;28;20022;-59
2021/06/11 06:12:55;;;;;;;5.40;4.28;;;;;;;;;;5010675;28;20112;-58
2021/06/11 06:15:20;;;;;;;6.60;4.82;;;;;;;;;;5011331;28;20025;-60
2021/06/11 06:17:46;;;;;;;6.07;4.43;;;;;;;;;;5008053;28;20417;-58
2021/06/11 06:20:12;;;;;;;8.05;5.05;;;;;;;;;;5011084;28;20108;-60
2021/06/11 06:22:37;;;;;;;6.50;5.25;;;;;;;;;;5010807;28;20128;-58
2021/06/11 06:25:04;;;;;;;8.50;6.07;;;;;;;;;;5010083;28;20621;-55
2021/06/11 06:27:29;;;;;;;9.00;6.32;;;;;;;;;;5009120;28;20061;-59
2021/06/11 06:29:55;;;;;;;10.73;5.68;;;;;;;;;;5010810;28;20057;-58
2021/06/11 06:32:20;;;;;;;7.53;5.43;;;;;;;;;;5010750;28;20056;-58
2021/06/11 06:34:46;;;;;;;7.00;5.40;;;;;;;;;;5010231;28;20048;-57
2021/06/11 06:37:12;;;;;;;7.93;4.90;;;;;;;;;;5009529;28;20022;-57
2021/06/11 06:39:38;;;;;;;7.95;5.28;;;;;;;;;;5010852;28;20478;-58
2021/06/11 06:42:04;;;;;;;7.72;5.68;;;;;;;;;;5010591;28;20435;-58
2021/06/11 06:44:30;;;;;;;7.68;5.13;;;;;;;;;;5011104;28;20545;-56
2021/06/11 06:46:55;;;;;;;9.05;5.25;;;;;;;;;;5008691;28;20042;-61
2021/06/11 06:49:20;;;;;;;9.32;6.07;;;;;;;;;;5048504;23;20049;-64
2021/06/11 06:51:46;;;;;;;7.10;5.60;;;;;;;;;;5050441;28;20464;-63
2021/06/11 06:54:12;;;;;;;8.27;5.38;;;;;;;;;;5050085;28;20688;-59
2021/06/11 06:56:37;;;;;;;6.75;5.10;;;;;;;;;;5048388;28;20025;-60
2021/06/11 06:59:02;;;;;;;9.20;5.38;;;;;;;;;;5050146;28;20037;-64
2021/06/11 07:01:28;;;;;;;8.02;5.30;;;;;;;;;;5050163;28;20028;-60
2021/06/11 07:03:57;;;;;;;7.78;5.35;;;;;;;;;;5031222;28;20020;-63
2021/06/11 07:06:25;;;;;;;7.07;5.10;;;;;;;;;;5044917;28;20033;-61
2021/06/11 07:08:51;;;;;;;8.10;4.82;;;;;;;;;;5048282;28;20078;-66
2021/06/11 07:11:16;;;;;;;9.10;4.70;;;;;;;;;;5050343;28;20108;-66
2021/06/11 07:13:41;;;;;;;8.65;4.57;;;;;;;;;;5049591;28;20033;-64
2021/06/11 07:16:07;;;;;;;6.28;4.70;;;;;;;;;;5049793;28;20029;-65
2021/06/11 07:18:32;;;;;;;6.25;4.47;;;;;;;;;;5029106;28;20540;-65
2021/06/11 07:20:58;;;;;;;6.22;4.80;;;;;;;;;;5049641;28;20021;-65
2021/06/11 07:23:23;;;;;;;8.98;4.65;;;;;;;;;;5049241;28;20501;-65
2021/06/11 07:25:48;;;;;;;8.30;4.63;;;;;;;;;;5049621;28;20036;-65
2021/06/11 07:28:14;;;;;;;8.18;4.80;;;;;;;;;;5048379;28;20084;-64
2021/06/11 07:30:39;;;;;;;6.53;4.10;;;;;;;;;;5048743;28;20017;-65
2021/06/11 07:33:05;;;;;;;5.68;4.30;;;;;;;;;;5049601;28;20030;-64
2021/06/11 07:35:30;;;;;;;6.03;4.22;;;;;;;;;;5032147;28;20063;-64
2021/06/11 07:37:55;;;;;;;5.15;4.32;;;;;;;;;;5047970;28;20028;-64
2021/06/11 07:40:21;;;;;;;6.55;4.55;;;;;;;;;;5048449;28;20025;-64
2021/06/11 07:42:47;;;;;;;6.25;3.90;;;;;;;;;;5043017;28;20076;-64
2021/06/11 07:45:12;;;;;;;4.80;3.90;;;;;;;;;;5030750;28;20022;-64
2021/06/11 07:47:38;;;;;;;4.57;3.97;;;;;;;;;;5047731;28;20064;-64
2021/06/11 07:50:04;;;;;;;4.80;4.28;;;;;;;;;;5049038;28;20052;-64
2021/06/11 07:52:31;;;;;;;6.40;4.50;;;;;;;;;;5047954;28;20063;-64
2021/06/11 07:54:56;;;;;;;4.90;4.32;;;;;;;;;;5049635;28;20032;-64
2021/06/11 07:57:22;;;;;;;5.13;4.00;;;;;;;;;;5047649;28;20025;-63
2021/06/11 07:59:47;;;;;;;5.57;3.90;;;;;;;;;;5048729;28;20099;-63
2021/06/11 08:02:14;;;;;;;5.82;4.40;;;;;;;;;;5031411;28;20061;-64
2021/06/11 08:04:39;;;;;;;4.63;3.60;;;;;;;;;;5049372;28;20040;-62
2021/06/11 08:07:05;;;;;;;4.93;4.05;;;;;;;;;;5047972;28;20025;-64
2021/06/11 08:09:32;;;;;;;4.85;3.70;;;;;;;;;;5048318;28;20017;-63
2021/06/11 08:11:58;;;;;;;4.03;3.50;;;;;;;;;;5048539;28;20112;-63
2021/06/11 08:14:23;;;;;;;5.95;4.20;;;;;;;;;;5048076;28;20112;-64
2021/06/11 08:16:49;;;;;;;4.65;3.97;;;;;;;;;;5037663;28;20060;-64
2021/06/11 08:19:14;;;;;;;5.15;3.58;;;;;;;;;;5030729;28;20056;-62
2021/06/11 08:21:40;;;;;;;4.95;3.90;;;;;;;;;;5030758;28;20036;-63
2021/06/11 08:24:05;;;;;;;4.03;3.50;;;;;;;;;;5048307;28;20031;-64
2021/06/11 08:26:30;;;;;;;4.60;3.40;;;;;;;;;;5046415;28;20028;-64
2021/06/11 08:28:56;;;;;;;4.38;3.63;;;;;;;;;;5046737;28;20021;-62
2021/06/11 08:31:21;;;;;;;4.53;3.95;;;;;;;;;;5048445;28;20138;-64
2021/06/11 08:33:47;;;;;;;5.53;3.65;;;;;;;;;;5048165;28;20045;-64
2021/06/11 08:36:13;;;;;;;5.00;3.60;;;;;;;;;;5047174;28;20061;-64
2021/06/11 08:38:39;;;;;;;4.68;3.50;;;;;;;;;;5046705;28;20087;-63
2021/06/11 08:41:07;;;;;;;5.03;3.75;;;;;;;;;;5048459;28;20025;-62
2021/06/11 08:43:32;;;;;;;4.03;3.50;;;;;;;;;;5030851;28;20043;-63
2021/06/11 08:45:57;;;;;;;3.65;3.33;;;;;;;;;;5048167;28;20749;-62
2021/06/11 08:48:23;;;;;;;4.57;3.38;;;;;;;;;;5011855;28;20455;-62
2021/06/11 08:50:49;;;;;;;3.67;3.00;;;;;;;;;;5047799;28;20457;-62
2021/06/11 08:53:15;;;;;;;4.20;3.50;;;;;;;;;;5047221;28;20104;-63
2021/06/11 08:55:40;;;;;;;4.72;3.42;;;;;;;;;;5048449;28;20104;-63
2021/06/11 08:58:06;;;;;;;5.00;3.83;;;;;;;;;;5045873;28;20033;-64
2021/06/11 09:00:32;;;;;;;3.88;3.40;;;;;;;;;;5047778;28;20481;-64
2021/06/11 09:03:19;;;;;;;5.20;3.58;;;;;;;;;;5029689;28;20040;-63
2021/06/11 09:06:05;;;;;;;3.90;3.50;;;;;;;;;;5038029;28;20436;-61
2021/06/11 09:08:30;;;;;;;3.88;3.42;;;;;;;;;;5035621;28;20040;-61
2021/06/11 09:11:09;;;;;;;4.32;3.50;;;;;;;;;;5042887;28;20032;-63
2021/06/11 09:13:35;;;;;;;5.45;3.10;;;;;;;;;;5047759;28;20020;-62
2021/06/11 09:16:12;;;;;;;4.97;3.00;;;;;;;;;;5047661;28;20028;-64
2021/06/11 09:18:44;;;;;;;4.25;3.50;;;;;;;;;;5046439;28;20094;-63
2021/06/11 09:21:26;;;;;;;4.78;3.40;;;;;;;;;;5045967;28;20029;-63
2021/06/11 09:24:24;;;;;;;4.88;3.30;;;;;;;;;;5047268;28;20075;-63
2021/06/11 09:27:02;;;;;;;4.88;3.65;;;;;;;;;;5046373;28;20040;-62
2021/06/11 09:29:33;;;;;;;4.13;3.30;;;;;;;;;;5047774;28;20396;-65
2021/06/11 09:32:12;;;;;;;5.10;3.65;;;;;;;;;;5045183;28;20029;-65
2021/06/11 09:34:37;;;;;;;5.75;3.03;;;;;;;;;;5047823;28;20064;-64
2021/06/11 09:37:04;;;;;;;6.43;3.70;;;;;;;;;;5028573;28;20056;-61
2021/06/11 09:40:10;;;;;;;4.32;3.67;;;;;;;;;;5028982;28;20400;-64
2021/06/11 09:42:37;;;;;;;4.28;3.22;;;;;;;;;;5034880;28;20037;-65
2021/06/11 09:45:13;;;;;;;5.13;3.47;;;;;;;;;;5047660;28;20079;-64
2021/06/11 09:47:44;;;;;;;4.18;3.10;;;;;;;;;;5026100;28;20032;-64
2021/06/11 09:50:16;;;;;;;4.03;3.38;;;;;;;;;;5027358;28;20104;-64
2021/06/11 09:53:05;;;;;;;4.20;3.28;;;;;;;;;;5031489;28;20036;-64
2021/06/11 09:55:36;;;;;;;4.75;3.42;;;;;;;;;;5047215;28;20488;-64
2021/06/11 09:58:20;;;;;;;;;;;;;;;;;;5046538;28;20083;-64
2021/06/11 10:00:47;;;;;;;5.38;3.70;;;;;;;;;;5041424;28;19913;-64
2021/06/11 10:03:14;;;;;;;5.57;3.50;;;;;;;;;;5027565;28;20036;-62
2021/06/11 10:05:40;;;;;;;4.80;3.90;;;;;;;;;;5047709;28;20107;-63
2021/06/11 10:08:07;;;;;;;4.50;3.70;;;;;;;;;;5044019;28;20032;-64
2021/06/11 10:10:32;;;;;;;4.10;3.38;;;;;;;;;;5021177;28;20040;-63
2021/06/11 10:12:57;;;;;;;6.22;3.83;;;;;;;;;;5033769;28;20033;-64
2021/06/11 10:15:23;;;;;;;5.35;3.45;;;;;;;;;;5046564;28;20029;-63
2021/06/11 10:17:48;;;;;;;6.65;3.35;;;;;;;;;;5045761;28;20061;-63
2021/06/11 10:20:14;;;;;;;6.22;3.80;;;;;;;;;;5045971;28;20033;-64
2021/06/11 10:22:40;;;;;;;5.57;3.55;;;;;;;;;;5045728;28;20034;-63
2021/06/11 10:25:08;;;;;;;5.40;3.55;;;;;;;;;;5046516;28;20100;-64
2021/06/11 10:27:34;;;;;;;6.43;3.47;;;;;;;;;;5045904;28;20211;-63
2021/06/11 10:30:00;;;;;;;4.75;3.38;;;;;;;;;;5022291;28;20500;-61
2021/06/11 10:32:25;;;;;;;5.72;3.80;;;;;;;;;;5023095;28;20032;-64
2021/06/11 10:35:01;;;;;;;6.82;3.80;;;;;;;;;;5021858;28;20021;-62
2021/06/11 10:37:34;;;;;;;6.85;3.97;;;;;;;;;;5034824;28;20484;-60
2021/06/11 10:40:16;;;;;;;6.38;4.40;;;;;;;;;;5035387;28;20025;-60
2021/06/11 10:42:43;;;;;;;5.30;3.67;;;;;;;;;;5019736;28;20047;-66
2021/06/11 10:45:11;;;;;;;5.30;3.75;;;;;;;;;;5036181;28;20497;-65
2021/06/11 10:47:38;;;;;;;6.60;3.80;;;;;;;;;;5036238;28;20043;-66
2021/06/11 10:50:08;;;;;;;6.80;4.13;;;;;;;;;;5021268;28;20026;-66
2021/06/11 10:52:34;;;;;;;5.47;3.97;;;;;;;;;;5032765;28;20500;-66
2021/06/11 10:55:18;;;;;;;10.27;3.97;;;;;;;;;;5039224;28;20075;-65
2021/06/11 10:57:44;;;;;;;6.55;4.13;;;;;;;;;;5038269;28;20031;-65
2021/06/11 11:00:19;;;;;;;8.32;4.30;;;;;;;;;;5024146;28;20033;-66
2021/06/11 11:02:52;;;;;;;5.68;3.53;;;;;;;;;;5040050;28;20087;-65
2021/06/11 11:05:27;;;;;;;6.85;3.90;;;;;;;;;;5040719;28;20033;-65
2021/06/11 11:07:52;;;;;;;5.38;3.90;;;;;;;;;;5039282;28;20052;-62
2021/06/11 11:10:43;;;;;;;5.13;4.47;;;;;;;;;;5042067;28;20032;-62
2021/06/11 11:13:15;;;;;;;8.07;4.10;;;;;;;;;;5039363;28;20033;-62
2021/06/11 11:15:41;;;;;;;7.78;4.40;;;;;;;;;;5042152;28;20391;-61
2021/06/11 11:18:08;;;;;;;10.02;4.65;;;;;;;;;;5038741;28;20392;-61
2021/06/11 11:20:35;;;;;;;7.25;4.97;;;;;;;;;;5020568;28;20465;-61
2021/06/11 11:23:01;;;;;;;6.18;4.68;;;;;;;;;;5021363;28;20488;-61
2021/06/11 11:25:28;;;;;;;8.27;4.50;;;;;;;;;;5038810;28;20022;-62
2021/06/11 11:27:54;;;;;;;6.75;4.32;;;;;;;;;;5036634;28;20021;-62
2021/06/11 11:30:20;;;;;;;6.25;4.85;;;;;;;;;;5037927;28;20393;-62
2021/06/11 11:32:46;;;;;;;7.50;4.93;;;;;;;;;;5037432;28;20021;-62
2021/06/11 11:35:14;;;;;;;6.68;5.10;;;;;;;;;;5036132;28;20099;-61
2021/06/11 11:37:39;;;;;;;8.40;5.00;;;;;;;;;;5038331;28;20028;-61
2021/06/11 11:40:05;;;;;;;5.70;4.78;;;;;;;;;;5036963;28;20029;-62
2021/06/11 11:42:31;;;;;;;7.80;5.25;;;;;;;;;;5039221;28;20172;-60
2021/06/11 11:44:56;;;;;;;6.85;5.18;;;;;;;;;;5037989;28;20140;-62
2021/06/11 11:47:22;;;;;;;6.20;5.28;;;;;;;;;;5037199;28;20366;-62
2021/06/11 11:49:47;;;;;;;7.80;5.30;;;;;;;;;;5038175;28;20025;-60
2021/06/11 11:52:12;;;;;;;9.75;5.18;;;;;;;;;;5036937;28;20025;-61
2021/06/11 11:54:38;;;;;;;6.40;5.32;;;;;;;;;;5039814;28;20026;-61
2021/06/11 11:57:03;;;;;;;9.60;5.03;;;;;;;;;;5037429;28;20031;-61
2021/06/11 11:59:29;;;;;;;8.73;4.90;;;;;;;;;;5039720;28;20120;-62
2021/06/11 12:01:54;;;;;;;7.05;5.25;;;;;;;;;;5037560;28;20033;-61
2021/06/11 12:04:20;;;;;;;7.55;4.43;;;;;;;;;;5038594;28;20044;-62
2021/06/11 12:06:45;;;;;;;7.75;5.15;;;;;;;;;;5038112;28;20099;-61
2021/06/11 12:09:11;;;;;;;7.22;5.10;;;;;;;;;;5039052;28;20107;-62
2021/06/11 12:11:36;;;;;;;7.22;5.30;;;;;;;;;;5036801;28;20067;-60
2021/06/11 12:14:02;;;;;;;10.82;5.68;;;;;;;;;;5038036;28;20050;-59
2021/06/11 12:16:28;;;;;;;10.85;5.22;;;;;;;;;;5036541;28;20417;-60
2021/06/11 12:18:53;;;;;;;7.45;4.95;;;;;;;;;;5020367;28;20035;-62
2021/06/11 12:21:18;;;;;;;8.85;5.70;;;;;;;;;;5037034;28;20453;-61
2021/06/11 12:23:44;;;;;;;7.45;5.18;;;;;;;;;;5039873;28;20070;-61
2021/06/11 12:26:09;;;;;;;7.25;5.47;;;;;;;;;;5035034;28;20043;-61
2021/06/11 12:28:35;;;;;;;7.32;4.93;;;;;;;;;;5035945;28;20425;-62
2021/06/11 12:31:04;;;;;;;10.82;5.60;;;;;;;;;;5037547;28;20021;-61
2021/06/11 12:33:29;;;;;;;6.10;5.30;;;;;;;;;;5035028;28;20443;-61
2021/06/11 12:35:55;;;;;;;10.85;5.80;;;;;;;;;;5021042;28;20103;-60
2021/06/11 12:38:20;;;;;;;9.88;5.50;;;;;;;;;;5038109;28;20171;-59
2021/06/11 12:40:48;;;;;;;10.48;5.32;;;;;;;;;;5041897;28;20027;-61
2021/06/11 12:43:16;;;;;;;6.57;5.25;;;;;;;;;;5033145;28;20024;-61
2021/06/11 12:45:42;;;;;;;6.20;5.30;;;;;;;;;;5031767;28;20017;-61
2021/06/11 12:48:08;;;;;;;12.15;5.45;;;;;;;;;;5039748;28;20411;-60
2021/06/11 12:50:33;;;;;;;9.02;6.03;;;;;;;;;;5012605;28;20023;-61
2021/06/11 12:52:59;;;;;;;8.57;5.43;;;;;;;;;;5019929;28;20427;-61
2021/06/11 12:55:26;;;;;;;18.98;5.78;;;;;;;;;;5028194;28;20030;-64
2021/06/11 12:57:51;;;;;;;10.45;6.00;;;;;;;;;;5038439;23;20045;-56
2021/06/11 13:00:17;;;;;;;14.98;6.55;;;;;;;;;;5017951;28;20084;-56
2021/06/11 13:02:42;;;;;;;17.80;5.85;;;;;;;;;;5015414;28;20026;-55
2021/06/11 13:05:08;;;;;;;14.40;6.05;;;;;;;;;;5017545;28;20100;-54
2021/06/11 13:07:34;;;;;;;7.65;5.60;;;;;;;;;;5004119;28;20041;-53
2021/06/11 13:09:59;;;;;;;7.05;5.60;;;;;;;;;;5018596;28;20028;-54
2021/06/11 13:12:24;;;;;;;11.27;5.53;;;;;;;;;;5024303;28;20052;-58
2021/06/11 13:14:51;;;;;;;10.57;5.72;;;;;;;;;;5020201;28;20087;-54
2021/06/11 13:17:16;;;;;;;10.10;5.88;;;;;;;;;;5021643;28;20396;-56
2021/06/11 13:19:41;;;;;;;11.10;5.60;;;;;;;;;;5025868;28;20025;-54
2021/06/11 13:22:07;;;;;;;11.25;6.20;;;;;;;;;;5025200;28;20492;-57
2021/06/11 13:24:32;;;;;;;9.15;5.63;;;;;;;;;;5026896;28;20049;-57
2021/06/11 13:26:57;;;;;;;9.10;5.65;;;;;;;;;;5026543;28;20500;-54
2021/06/11 13:29:23;;;;;;;8.38;5.85;;;;;;;;;;5027133;28;20032;-58
2021/06/11 13:31:49;;;;;;;9.05;6.03;;;;;;;;;;5023545;28;20080;-58
2021/06/11 13:34:14;;;;;;;10.35;5.90;;;;;;;;;;5026511;28;20064;-58
2021/06/11 13:36:40;;;;;;;14.07;5.78;;;;;;;;;;5026409;28;20121;-55
2021/06/11 13:39:05;;;;;;;9.73;5.90;;;;;;;;;;5026861;28;20029;-58
2021/06/11 13:41:30;;;;;;;7.35;5.68;;;;;;;;;;5026498;28;20104;-57
2021/06/11 13:43:56;;;;;;;12.40;5.53;;;;;;;;;;5025767;28;20036;-58
2021/06/11 13:46:21;;;;;;;11.63;5.93;;;;;;;;;;5026120;28;20126;-57
2021/06/11 13:48:47;;;;;;;8.30;6.00;;;;;;;;;;5008557;28;20025;-54
2021/06/11 13:51:13;;;;;;;9.93;5.70;;;;;;;;;;5027519;28;20120;-58
2021/06/11 13:53:38;;;;;;;9.65;5.88;;;;;;;;;;5027088;28;20029;-58
2021/06/11 13:56:04;;;;;;;10.77;5.97;;;;;;;;;;5026487;28;20100;-57
2021/06/11 13:58:29;;;;;;;8.05;5.57;;;;;;;;;;5025514;28;20041;-57
2021/06/11 14:00:54;;;;;;;11.18;6.18;;;;;;;;;;5027069;28;20075;-58
2021/06/11 14:03:20;;;;;;;9.05;5.60;;;;;;;;;;5013982;28;20030;-58
2021/06/11 14:05:46;;;;;;;10.40;5.40;;;;;;;;;;5012507;28;20045;-59
2021/06/11 14:08:11;;;;;;;8.50;5.55;;;;;;;;;;5025950;28;20032;-55
2021/06/11 14:10:37;;;;;;;6.68;5.20;;;;;;;;;;5009287;28;20029;-59
2021/06/11 14:13:03;;;;;;;7.22;5.60;;;;;;;;;;5026795;28;20478;-59
2021/06/11 14:15:29;;;;;;;6.82;5.70;;;;;;;;;;5026701;28;20500;-58
2021/06/11 14:17:54;;;;;;;7.47;5.38;;;;;;;;;;5022484;28;20033;-58
2021/06/11 14:20:20;;;;;;;6.05;5.25;;;;;;;;;;5027293;28;20030;-55
2021/06/11 14:22:45;;;;;;;6.68;5.85;;;;;;;;;;5027248;28;20108;-58
2021/06/11 14:25:12;;;;;;;6.25;5.57;;;;;;;;;;5027388;28;20035;-59
2021/06/11 14:27:38;;;;;;;6.65;5.65;;;;;;;;;;5024247;28;20071;-58
2021/06/11 14:30:04;;;;;;;7.47;5.43;;;;;;;;;;5029729;28;20021;-57
2021/06/11 14:32:29;;;;;;;6.85;5.88;;;;;;;;;;5010988;28;20026;-55
2021/06/11 14:34:55;;;;;;;6.93;5.68;;;;;;;;;;5011288;28;20032;-58
2021/06/11 14:37:21;;;;;;;7.55;5.82;;;;;;;;;;5026497;28;20104;-55
2021/06/11 14:39:46;;;;;;;7.63;5.40;;;;;;;;;;5029968;28;20017;-58
2021/06/11 14:42:12;;;;;;;6.50;5.60;;;;;;;;;;5030405;28;20071;-53
2021/06/11 14:44:37;;;;;;;6.28;5.20;;;;;;;;;;5030181;28;20091;-57